Time;durP1;ratioP1;P1;durP2;ratioP2;P2;SDS_P1;SDS_P2;PMS_P1;PMS_P2;Temp;Humidity;BMP_temperature;BMP_pressure;BME280_temperature;BME280_humidity;BME280_pressure;Samples;Min_cycle;Max_cycle;Signal;HPM_P1;HPM_P2
2022/03/03 00:02:31;;;;;;;24.08;10.75;;;;;;;0.84;48.13;100019.87;4438391;32;34307;-75
2022/03/03 00:05:18;;;;;;;25.55;12.20;;;;;;;0.95;47.79;100020.91;4423598;32;34136;-75
2022/03/03 00:08:04;;;;;;;28.87;13.35;;;;;;;0.85;48.27;100025.03;4431117;32;35588;-75
2022/03/03 00:10:51;;;;;;;25.50;10.90;;;;;;;0.63;48.44;100026.72;4441189;32;35583;-75
2022/03/03 00:13:37;;;;;;;22.62;11.60;;;;;;;0.52;48.65;100022.97;4422758;32;34549;-75
2022/03/03 00:16:25;;;;;;;23.00;11.12;;;;;;;0.55;48.39;100018.97;4439398;32;34239;-75
2022/03/03 00:19:11;;;;;;;24.12;10.70;;;;;;;0.55;48.47;100019.78;4445020;32;35072;-75
2022/03/03 00:21:57;;;;;;;24.70;9.80;;;;;;;0.39;48.66;100023.19;4429034;32;36024;-75
2022/03/03 00:24:44;;;;;;;21.08;10.23;;;;;;;0.69;48.30;100020.37;4430776;32;34678;-75
2022/03/03 00:27:30;;;;;;;26.27;11.32;;;;;;;0.73;48.22;100024.22;4439912;32;34280;-75
2022/03/03 00:30:16;;;;;;;25.95;11.32;;;;;;;0.75;48.06;100016.72;4443285;32;35258;-75
2022/03/03 00:33:03;;;;;;;25.25;12.00;;;;;;;0.73;47.99;100018.00;4436719;32;34865;-75
2022/03/03 00:35:49;;;;;;;26.25;11.85;;;;;;;0.82;48.10;100017.38;4439747;32;34760;-75
2022/03/03 00:38:36;;;;;;;26.90;11.82;;;;;;;0.19;49.33;100020.84;4450193;32;34609;-75
2022/03/03 00:41:22;;;;;;;25.65;12.40;;;;;;;0.61;48.81;100016.16;4423334;32;34290;-75
2022/03/03 00:44:09;;;;;;;26.45;12.65;;;;;;;0.71;48.31;100020.94;4434837;32;35007;-75
2022/03/03 00:46:56;;;;;;;23.92;11.23;;;;;;;0.65;48.32;100020.03;4434642;32;35330;-75
2022/03/03 00:49:42;;;;;;;24.85;11.90;;;;;;;0.84;47.92;100025.25;4445096;32;34954;-75
2022/03/03 00:52:28;;;;;;;22.27;11.35;;;;;;;0.29;49.30;100013.00;4426295;32;35563;-75
2022/03/03 00:55:15;;;;;;;27.30;11.85;;;;;;;0.38;48.95;100005.38;4422289;32;35899;-75
2022/03/03 00:58:01;;;;;;;28.58;12.98;;;;;;;0.68;48.38;100005.22;4433419;32;34210;-75
2022/03/03 01:00:47;;;;;;;25.37;10.88;;;;;;;-0.03;50.19;100007.94;4440012;32;34915;-76
2022/03/03 01:03:34;;;;;;;22.90;11.15;;;;;;;0.60;48.65;100003.72;4416649;32;35121;-75
2022/03/03 01:06:20;;;;;;;24.37;10.80;;;;;;;0.70;48.48;100003.13;4437029;32;34928;-76
2022/03/03 01:09:06;;;;;;;24.05;10.73;;;;;;;0.67;48.58;100000.91;4435208;32;34188;-75
2022/03/03 01:11:53;;;;;;;24.37;10.77;;;;;;;0.01;50.24;100002.09;4424609;32;35092;-76
2022/03/03 01:14:39;;;;;;;22.85;10.73;;;;;;;0.23;50.10;99992.38;4436947;32;35528;-75
2022/03/03 01:17:25;;;;;;;24.90;11.20;;;;;;;0.49;49.38;99995.66;4434824;32;36044;-75
2022/03/03 01:20:11;;;;;;;25.10;11.40;;;;;;;0.43;49.32;99987.44;4435318;32;34517;-76
2022/03/03 01:22:58;;;;;;;21.90;10.00;;;;;;;0.63;49.18;99989.78;4427646;32;35173;-76
2022/03/03 01:25:44;;;;;;;23.00;11.38;;;;;;;0.62;49.16;99987.28;4433520;32;34532;-75
2022/03/03 01:28:30;;;;;;;24.30;10.82;;;;;;;0.51;49.14;99980.84;4438639;32;36027;-75
2022/03/03 01:31:17;;;;;;;24.70;12.23;;;;;;;0.48;49.20;99975.94;4428161;32;34637;-75
2022/03/03 01:34:04;;;;;;;26.20;11.10;;;;;;;0.64;48.75;99971.72;4442716;32;35134;-76
2022/03/03 01:36:50;;;;;;;22.83;10.45;;;;;;;0.57;49.20;99976.38;4444638;32;35331;-75
2022/03/03 01:39:36;;;;;;;23.70;10.85;;;;;;;0.37;49.25;99966.81;4447396;32;34984;-76
2022/03/03 01:42:23;;;;;;;21.17;10.07;;;;;;;0.47;49.26;99970.81;4443151;32;34533;-76
2022/03/03 01:45:09;;;;;;;21.70;10.98;;;;;;;0.14;50.10;99974.91;4437443;32;35533;-75
2022/03/03 01:47:55;;;;;;;23.67;11.05;;;;;;;0.38;49.69;99968.47;4437205;32;34226;-76
2022/03/03 01:50:42;;;;;;;24.77;11.43;;;;;;;0.74;48.43;99957.59;4445696;32;34744;-76
2022/03/03 01:53:29;;;;;;;22.65;10.75;;;;;;;0.65;48.60;99959.84;4420849;32;35524;-75
2022/03/03 01:56:16;;;;;;;25.08;11.20;;;;;;;0.39;49.89;99953.91;4430344;32;33791;-76
2022/03/03 01:59:03;;;;;;;24.23;10.98;;;;;;;0.40;50.17;99954.75;4439057;32;34134;-75
2022/03/03 02:01:50;;;;;;;21.98;10.85;;;;;;;0.37;50.10;99955.19;4444845;32;35719;-75
2022/03/03 02:04:38;;;;;;;26.40;12.57;;;;;;;0.21;50.60;99951.38;4441131;32;34395;-76
2022/03/03 02:07:25;;;;;;;25.48;11.30;;;;;;;0.39;50.20;99947.72;4438957;32;34305;-76
2022/03/03 02:10:11;;;;;;;21.83;11.20;;;;;;;-0.57;52.78;99955.97;4432930;32;34424;-76
2022/03/03 02:12:57;;;;;;;24.80;11.68;;;;;;;-0.02;51.93;99947.63;4443260;32;35023;-76
2022/03/03 02:15:50;;;;;;;26.23;11.10;;;;;;;0.22;50.83;99943.03;4421834;32;35563;-75
2022/03/03 02:18:40;;;;;;;23.90;11.55;;;;;;;0.15;51.06;99941.53;4429468;32;34163;-76
2022/03/03 02:21:26;;;;;;;25.62;12.18;;;;;;;0.01;51.79;99940.13;4441352;32;34157;-75
2022/03/03 02:24:13;;;;;;;27.85;12.13;;;;;;;0.07;51.49;99931.09;4426706;32;35950;-75
2022/03/03 02:27:00;;;;;;;24.05;12.27;;;;;;;-0.03;51.82;99924.44;4449114;32;34576;-76
2022/03/03 02:29:47;;;;;;;27.87;12.70;;;;;;;-0.08;51.80;99926.19;4435205;32;34254;-75
2022/03/03 02:32:34;;;;;;;24.58;11.73;;;;;;;-0.28;53.01;99931.91;4423349;32;34221;-75
2022/03/03 02:35:20;;;;;;;26.10;11.63;;;;;;;-0.29;53.18;99931.06;4421469;32;34836;-75
2022/03/03 02:38:07;;;;;;;28.30;13.10;;;;;;;-0.06;52.35;99922.22;4432576;32;35484;-75
2022/03/03 02:40:53;;;;;;;28.40;13.30;;;;;;;0.10;52.21;99919.84;4421580;32;35166;-76
2022/03/03 02:43:40;;;;;;;29.30;11.82;;;;;;;-0.02;52.47;99917.97;4433452;32;34568;-75
2022/03/03 02:46:26;;;;;;;25.30;11.93;;;;;;;0.01;52.57;99930.16;4422433;32;34013;-75
2022/03/03 02:49:13;;;;;;;22.13;10.73;;;;;;;-0.17;53.03;99925.72;4420995;32;34731;-75
2022/03/03 02:51:59;;;;;;;25.70;10.73;;;;;;;0.01;52.65;99921.28;4433811;32;35146;-75
2022/03/03 02:54:45;;;;;;;26.37;11.93;;;;;;;0.02;52.37;99922.91;4421260;32;34672;-76
2022/03/03 03:00:42;;;;;;;26.42;11.45;;;;;;;-0.06;52.61;99918.66;4432446;32;36228;-75
2022/03/03 03:03:29;;;;;;;27.48;11.85;;;;;;;-0.25;52.65;99916.09;4421265;32;34191;-74
2022/03/03 03:06:16;;;;;;;26.27;11.35;;;;;;;-0.14;52.78;99914.47;4433755;32;35310;-75
2022/03/03 03:09:02;;;;;;;28.65;11.95;;;;;;;-0.01;52.34;99908.84;4433472;32;34796;-75
2022/03/03 03:11:48;;;;;;;25.12;11.60;;;;;;;0.06;52.13;99915.97;4432305;32;34712;-76
2022/03/03 03:14:34;;;;;;;32.22;12.88;;;;;;;-0.03;52.45;99910.97;4432825;32;35224;-75
2022/03/03 03:17:22;;;;;;;25.73;13.10;;;;;;;-0.22;53.22;99916.69;4433258;32;34180;-76
2022/03/03 03:20:08;;;;;;;28.15;11.95;;;;;;;-0.07;53.01;99912.47;4421403;32;34930;-75
2022/03/03 03:22:55;;;;;;;25.23;12.18;;;;;;;-0.14;53.20;99917.16;4432546;32;35287;-75
2022/03/03 03:25:43;;;;;;;30.40;13.25;;;;;;;-0.32;53.83;99914.56;4418786;32;33881;-75
2022/03/03 03:28:30;;;;;;;26.83;12.82;;;;;;;-0.47;54.28;99917.72;4421101;32;34308;-75
2022/03/03 03:31:16;;;;;;;27.75;12.27;;;;;;;-0.43;54.55;99918.06;4419790;32;33785;-76
2022/03/03 03:34:02;;;;;;;24.30;11.82;;;;;;;-0.51;54.83;99917.34;4447460;32;34406;-75
2022/03/03 03:36:49;;;;;;;29.92;13.45;;;;;;;-0.60;55.05;99918.72;4436427;32;35062;-76
2022/03/03 03:39:35;;;;;;;29.83;12.77;;;;;;;-0.63;55.33;99919.19;4447036;32;34346;-76
2022/03/03 03:42:22;;;;;;;31.50;13.30;;;;;;;-0.66;54.94;99926.91;4447545;32;34913;-76
2022/03/03 03:45:09;;;;;;;35.30;14.20;;;;;;;-0.64;54.91;99916.75;4447792;32;34724;-76
2022/03/03 03:47:56;;;;;;;31.20;14.35;;;;;;;-1.76;58.49;99912.63;4448625;32;34826;-76
2022/03/03 03:50:42;;;;;;;31.75;13.93;;;;;;;-0.97;55.88;99912.66;4435503;32;34332;-75
2022/03/03 03:53:28;;;;;;;33.60;14.35;;;;;;;-0.89;55.52;99916.91;4436566;32;36706;-76
2022/03/03 03:56:15;;;;;;;34.10;13.85;;;;;;;-1.31;56.47;99915.00;4448111;32;35505;-76
2022/03/03 03:59:01;;;;;;;30.80;14.20;;;;;;;-1.23;56.81;99920.03;4436933;32;35350;-76
2022/03/03 04:01:47;;;;;;;31.90;14.65;;;;;;;-3.87;66.10;99924.50;4446951;32;34215;-76
2022/03/03 04:04:34;;;;;;;27.33;12.80;;;;;;;-2.41;61.80;99922.94;4436048;32;34932;-75
2022/03/03 04:07:20;;;;;;;31.77;13.20;;;;;;;-2.89;64.23;99920.81;4447333;32;35541;-75
2022/03/03 04:10:07;;;;;;;27.30;12.68;;;;;;;-1.70;59.64;99913.59;4448102;32;34833;-75
2022/03/03 04:12:55;;;;;;;29.95;13.60;;;;;;;-1.37;57.61;99914.03;4435571;32;35536;-75
2022/03/03 04:15:42;;;;;;;41.33;16.00;;;;;;;-1.25;57.13;99916.78;4446705;32;34556;-76
2022/03/03 04:18:29;;;;;;;29.98;13.52;;;;;;;-2.37;60.06;99914.22;4425364;32;34844;-75
2022/03/03 04:21:15;;;;;;;28.65;13.73;;;;;;;-1.62;58.56;99905.25;4447697;32;34414;-76
2022/03/03 04:24:02;;;;;;;32.38;15.00;;;;;;;-1.56;58.50;99908.91;4446540;32;34667;-75
2022/03/03 04:26:48;;;;;;;31.35;13.80;;;;;;;-1.42;57.96;99908.50;4447396;32;36075;-76
2022/03/03 04:29:34;;;;;;;31.45;12.70;;;;;;;-1.31;57.56;99906.09;4435124;32;35548;-75
2022/03/03 04:32:21;;;;;;;28.02;11.57;;;;;;;-1.46;57.83;99903.78;4442690;32;34252;-75
2022/03/03 04:35:11;;;;;;;25.52;12.05;;;;;;;-1.55;58.23;99900.59;4431192;32;34467;-76
2022/03/03 04:37:57;;;;;;;35.55;12.27;;;;;;;-1.54;58.22;99890.66;4441085;32;35055;-76
2022/03/03 04:40:44;;;;;;;29.98;13.07;;;;;;;-1.73;58.90;99893.38;4431459;32;34744;-76
2022/03/03 04:43:30;;;;;;;27.92;12.07;;;;;;;-1.85;59.36;99887.06;4431790;32;35707;-76
2022/03/03 04:46:17;;;;;;;34.47;14.68;;;;;;;-1.66;59.22;99893.28;4432876;32;34441;-76
2022/03/03 04:49:03;;;;;;;35.53;14.98;;;;;;;-1.67;58.94;99902.41;4433562;32;35060;-75
2022/03/03 04:51:50;;;;;;;37.55;15.43;;;;;;;-1.64;59.15;99891.19;4433922;32;34624;-75
2022/03/03 04:54:36;;;;;;;31.95;12.85;;;;;;;-1.97;60.11;99899.63;4433322;32;35033;-76
2022/03/03 04:57:23;;;;;;;30.92;12.25;;;;;;;-1.89;59.79;99900.13;4433264;32;35506;-76
2022/03/03 05:00:09;;;;;;;28.65;11.98;;;;;;;-2.03;60.11;99904.81;4431736;32;34951;-76
2022/03/03 05:02:55;;;;;;;25.40;12.75;;;;;;;-2.11;60.70;99899.72;4433264;32;35601;-76
2022/03/03 05:05:42;;;;;;;29.30;12.68;;;;;;;-2.47;62.19;99891.63;4434507;32;33873;-75
2022/03/03 05:08:28;;;;;;;32.17;12.80;;;;;;;-2.54;62.58;99891.66;4433212;32;35478;-75
2022/03/03 05:11:15;;;;;;;29.92;12.82;;;;;;;-2.49;62.82;99889.16;4433615;32;35022;-76
2022/03/03 05:14:01;;;;;;;32.30;13.25;;;;;;;-2.12;61.50;99884.69;4433790;32;35531;-75
2022/03/03 05:16:47;;;;;;;30.00;14.02;;;;;;;-2.16;61.22;99888.00;4433668;32;35446;-75
2022/03/03 05:19:34;;;;;;;32.80;13.90;;;;;;;-2.20;61.61;99892.19;4433893;32;34210;-75
2022/03/03 05:22:20;;;;;;;28.45;13.90;;;;;;;-2.08;61.08;99885.03;4433765;32;35101;-76
2022/03/03 05:25:07;;;;;;;30.65;14.02;;;;;;;-2.20;61.35;99886.81;4440923;32;34285;-76
2022/03/03 05:27:53;;;;;;;34.10;15.05;;;;;;;-2.04;61.01;99897.00;4432343;32;34266;-76
2022/03/03 05:30:40;;;;;;;31.37;14.15;;;;;;;-1.90;60.82;99886.94;4433485;32;34229;-75
2022/03/03 05:33:27;;;;;;;33.15;14.90;;;;;;;-1.75;60.49;99890.06;4444983;32;34572;-75
2022/03/03 05:36:13;;;;;;;34.33;16.08;;;;;;;-1.71;59.72;99895.81;4436368;32;34431;-76
2022/03/03 05:39:00;;;;;;;33.95;15.23;;;;;;;-3.17;64.51;99898.69;4439482;32;34311;-76
2022/03/03 05:41:47;;;;;;;32.58;15.60;;;;;;;-2.34;63.20;99892.31;4448360;32;34230;-75
2022/03/03 05:44:34;;;;;;;34.25;14.27;;;;;;;-2.30;62.15;99893.53;4435273;32;36002;-76
2022/03/03 05:47:20;;;;;;;33.92;14.25;;;;;;;-2.43;62.19;99888.28;4434933;32;35433;-76
2022/03/03 05:50:07;;;;;;;31.48;14.87;;;;;;;-2.31;62.79;99891.88;4437697;32;34262;-76
2022/03/03 05:52:54;;;;;;;30.33;13.77;;;;;;;-2.23;62.01;99888.09;4432949;32;34657;-76
2022/03/03 05:55:56;;;;;;;32.83;15.43;;;;;;;-2.05;62.10;99889.97;4430168;32;34896;-76
2022/03/03 05:58:46;;;;;;;25.50;11.05;;;;;;;-2.26;62.43;99892.03;4438852;32;34340;-71
2022/03/03 06:01:36;;;;;;;30.30;13.35;;;;;;;-2.55;63.81;99890.03;4427928;32;34913;-72
2022/03/03 06:04:26;;;;;;;33.97;14.13;;;;;;;-2.59;65.09;99900.38;4439649;32;34503;-71
2022/03/03 06:07:13;;;;;;;32.67;14.27;;;;;;;-2.52;64.48;99894.97;4426300;32;34595;-71
2022/03/03 06:10:02;;;;;;;41.35;15.05;;;;;;;-2.95;67.17;99901.06;4441883;32;34848;-71
2022/03/03 06:13:12;;;;;;;33.90;14.05;;;;;;;-2.63;64.92;99906.41;4424365;32;33436;-71
2022/03/03 06:15:59;;;;;;;30.83;14.50;;;;;;;-2.53;66.00;99904.06;4442374;32;34600;-71
2022/03/03 06:18:47;;;;;;;37.10;14.85;;;;;;;-3.26;68.84;99907.22;4434910;32;34993;-71
2022/03/03 06:21:33;;;;;;;31.95;15.05;;;;;;;-2.23;64.38;99898.00;4444231;32;34718;-71
2022/03/03 06:24:19;;;;;;;35.88;14.45;;;;;;;-1.64;62.16;99897.38;4441895;32;34008;-72
2022/03/03 06:27:08;;;;;;;29.70;13.62;;;;;;;-1.49;61.70;99891.63;4438157;32;34569;-71
2022/03/03 06:29:57;;;;;;;32.15;13.98;;;;;;;-1.33;60.92;99900.13;4442548;32;35885;-72
2022/03/03 06:32:44;;;;;;;33.10;14.07;;;;;;;-3.00;67.30;99900.88;4434247;32;34693;-72
2022/03/03 06:35:36;;;;;;;40.55;17.20;;;;;;;-2.87;66.35;99900.78;4432421;32;33717;-72
2022/03/03 06:38:23;;;;;;;45.03;17.70;;;;;;;-3.63;70.36;99904.28;4438643;32;34328;-72
2022/03/03 06:41:09;;;;;;;36.92;16.35;;;;;;;-3.43;69.90;99910.37;4426075;32;35930;-71
2022/03/03 06:43:56;;;;;;;33.30;15.73;;;;;;;-4.03;73.71;99923.13;4427395;32;34156;-71
2022/03/03 06:46:42;;;;;;;35.65;16.83;;;;;;;-3.82;73.16;99916.69;4426332;32;33907;-71
2022/03/03 06:49:30;;;;;;;39.90;15.32;;;;;;;-3.59;72.54;99926.91;4435028;32;34485;-71
2022/03/03 06:52:17;;;;;;;36.47;16.80;;;;;;;-3.59;72.74;99926.09;4426018;32;34923;-71
2022/03/03 06:55:05;;;;;;;35.15;15.60;;;;;;;-2.91;69.92;99928.25;4439880;32;34601;-71
2022/03/03 06:57:54;;;;;;;34.78;16.00;;;;;;;-1.79;66.62;99931.03;4437503;32;32767;-71
2022/03/03 07:00:40;;;;;;;38.45;17.10;;;;;;;-2.05;66.50;99923.03;4436585;32;34559;-72
2022/03/03 07:03:29;;;;;;;32.58;14.90;;;;;;;-1.06;62.53;99919.41;4413812;32;34517;-72
2022/03/03 07:06:18;;;;;;;39.10;16.70;;;;;;;-1.09;62.06;99918.00;4434953;32;34324;-71
2022/03/03 07:09:04;;;;;;;31.02;14.98;;;;;;;-1.87;65.60;99922.22;4433325;32;34413;-71
2022/03/03 07:11:50;;;;;;;36.90;15.68;;;;;;;-1.30;63.25;99918.50;4434668;32;34655;-71
2022/03/03 07:14:36;;;;;;;31.23;15.68;;;;;;;-0.63;60.82;99919.19;4436288;32;36575;-72
2022/03/03 07:17:51;;;;;;;34.92;16.70;;;;;;;-1.25;62.79;99918.63;4436668;32;34714;-72
2022/03/03 07:20:54;;;;;;;35.15;15.32;;;;;;;-0.49;60.84;99926.00;4425705;32;34894;-72
2022/03/03 07:23:47;;;;;;;33.05;15.75;;;;;;;-0.70;61.55;99926.56;4413224;32;34210;-72
2022/03/03 07:26:34;;;;;;;35.47;15.95;;;;;;;-0.84;61.22;99922.41;4428588;32;34999;-72
2022/03/03 07:29:25;;;;;;;35.00;15.27;;;;;;;-0.69;60.00;99922.81;4423279;32;34650;-72
2022/03/03 07:32:13;;;;;;;35.38;15.93;;;;;;;-0.28;59.51;99918.44;4426835;32;34777;-72
2022/03/03 07:35:09;;;;;;;31.85;15.50;;;;;;;-0.32;58.78;99919.94;4416042;32;33553;-72
2022/03/03 07:38:05;;;;;;;33.45;16.02;;;;;;;-0.38;60.20;99920.88;4439376;32;36008;-72
2022/03/03 07:40:52;;;;;;;36.38;17.27;;;;;;;0.28;57.83;99916.19;4433849;32;34191;-72
2022/03/03 07:43:38;;;;;;;36.45;16.12;;;;;;;0.86;56.30;99910.66;4418000;32;34099;-72
2022/03/03 07:46:25;;;;;;;36.08;16.00;;;;;;;0.81;55.72;99901.66;4426476;32;34157;-72
2022/03/03 07:49:13;;;;;;;36.22;16.60;;;;;;;0.16;58.59;99895.47;4441420;32;35031;-73
2022/03/03 07:52:02;;;;;;;35.83;17.45;;;;;;;-0.07;60.11;99901.69;4438726;32;34401;-73
2022/03/03 07:54:48;;;;;;;32.42;15.90;;;;;;;-0.19;60.57;99900.88;4424877;32;34244;-73
2022/03/03 07:57:39;;;;;;;39.47;17.00;;;;;;;0.41;59.28;99892.50;4426304;32;34595;-73
2022/03/03 08:00:29;;;;;;;37.58;17.62;;;;;;;1.01;57.33;99893.13;4434194;32;35860;-73
2022/03/03 08:03:18;;;;;;;37.47;17.83;;;;;;;0.85;58.19;99886.63;4440505;32;34490;-74
2022/03/03 08:06:04;;;;;;;36.35;15.60;;;;;;;0.88;58.51;99892.38;4424288;32;34264;-73
2022/03/03 08:08:53;;;;;;;33.25;15.68;;;;;;;1.03;57.12;99888.31;4423596;32;35425;-72
2022/03/03 08:11:40;;;;;;;34.10;16.17;;;;;;;1.27;56.92;99884.41;4433285;32;34592;-73
2022/03/03 08:14:29;;;;;;;33.88;16.17;;;;;;;2.25;55.50;99889.44;4439039;32;35284;-73
2022/03/03 08:17:15;;;;;;;32.70;15.60;;;;;;;2.13;53.44;99886.00;4430622;32;34042;-74
2022/03/03 08:20:07;;;;;;;30.48;15.05;;;;;;;3.04;52.38;99880.88;4438866;32;35220;-73
2022/03/03 08:22:53;;;;;;;29.85;14.52;;;;;;;3.05;50.92;99879.81;4424399;32;34895;-73
2022/03/03 08:25:40;;;;;;;28.98;14.90;;;;;;;3.75;50.42;99877.16;4421964;32;35449;-73
2022/03/03 08:28:27;;;;;;;29.30;13.43;;;;;;;3.17;50.79;99878.84;4427353;32;35028;-73
2022/03/03 08:31:17;;;;;;;25.23;12.85;;;;;;;3.82;50.83;99875.06;4437428;32;34321;-74
2022/03/03 08:34:12;;;;;;;27.70;12.95;;;;;;;4.11;47.95;99870.09;4418945;32;35576;-74
2022/03/03 08:37:00;;;;;;;26.02;12.23;;;;;;;3.57;48.91;99870.25;4433465;32;35586;-74
2022/03/03 08:39:50;;;;;;;22.27;11.18;;;;;;;4.36;48.54;99860.47;4422142;32;33835;-74
2022/03/03 08:42:40;;;;;;;22.77;12.27;;;;;;;4.56;47.47;99868.69;4421250;32;35044;-74
2022/03/03 08:45:29;;;;;;;25.33;11.57;;;;;;;4.31;46.99;99863.94;4420994;32;34650;-73
2022/03/03 08:48:16;;;;;;;22.90;10.55;;;;;;;4.81;45.28;99864.41;4421591;32;35623;-77
2022/03/03 08:51:03;;;;;;;20.15;9.73;;;;;;;5.31;45.06;99858.25;4430994;32;34834;-76
2022/03/03 08:53:49;;;;;;;19.33;10.38;;;;;;;5.35;44.27;99853.06;4422314;32;34660;-75
2022/03/03 08:56:35;;;;;;;21.37;10.05;;;;;;;5.72;43.26;99855.53;4421207;32;34644;-75
2022/03/03 08:59:22;;;;;;;21.67;9.52;;;;;;;5.82;42.38;99852.78;4437725;32;34785;-75
2022/03/03 09:02:11;;;;;;;19.65;10.18;;;;;;;6.11;42.56;99844.06;4425386;32;35276;-75
2022/03/03 09:04:57;;;;;;;21.67;9.77;;;;;;;5.66;42.57;99848.44;4438461;32;35683;-74
2022/03/03 09:07:45;;;;;;;19.27;9.88;;;;;;;5.54;42.74;99856.09;4437359;32;34012;-75
2022/03/03 09:10:32;;;;;;;19.98;10.25;;;;;;;5.78;43.16;99851.72;4438279;32;34597;-75
2022/03/03 09:13:18;;;;;;;24.08;10.40;;;;;;;6.38;41.26;99853.78;4428086;32;34265;-74
2022/03/03 09:16:05;;;;;;;21.17;9.20;;;;;;;6.78;40.78;99851.97;4428100;32;35485;-74
2022/03/03 09:18:52;;;;;;;20.37;9.23;;;;;;;7.02;40.21;99857.56;4439147;32;34968;-74
2022/03/03 09:21:38;;;;;;;18.40;9.75;;;;;;;6.97;40.61;99861.09;4435058;32;34675;-74
2022/03/03 09:24:25;;;;;;;21.98;10.48;;;;;;;7.04;40.03;99858.91;4438144;32;34339;-75
2022/03/03 09:27:12;;;;;;;19.25;10.18;;;;;;;7.24;39.99;99868.03;4438621;32;34726;-75
2022/03/03 09:29:58;;;;;;;22.08;10.57;;;;;;;7.56;38.97;99867.53;4439725;32;34944;-75
2022/03/03 09:32:45;;;;;;;20.95;10.52;;;;;;;7.45;39.62;99864.06;4427274;32;35466;-75
2022/03/03 09:35:32;;;;;;;26.00;12.40;;;;;;;8.37;37.68;99855.00;4427672;32;34124;-75
2022/03/03 09:38:18;;;;;;;24.12;12.30;;;;;;;8.89;36.48;99855.19;4435501;32;34620;-72
2022/03/03 09:41:04;;;;;;;21.52;11.57;;;;;;;8.92;35.92;99854.59;4438251;32;36047;-75
2022/03/03 09:43:51;;;;;;;22.23;11.57;;;;;;;8.88;35.79;99848.06;4428787;32;34799;-74
2022/03/03 09:46:38;;;;;;;24.90;11.25;;;;;;;8.31;36.81;99853.41;4433504;32;34207;-75
2022/03/03 09:49:24;;;;;;;19.00;10.10;;;;;;;9.20;36.32;99845.44;4430690;32;34610;-75
2022/03/03 09:52:16;;;;;;;18.10;10.02;;;;;;;9.82;36.35;99842.50;4430226;32;34982;-75
2022/03/03 09:55:03;;;;;;;16.10;8.82;;;;;;;8.77;36.44;99831.03;4440424;32;34912;-76
2022/03/03 09:57:50;;;;;;;17.52;9.13;;;;;;;9.95;34.88;99842.84;4426971;32;33973;-75
2022/03/03 10:00:40;;;;;;;16.98;9.25;;;;;;;10.41;33.68;99839.25;4437867;32;34615;-74
2022/03/03 10:03:35;;;;;;;38.70;12.05;;;;;;;11.17;32.03;99837.56;4427580;32;35038;-74
2022/03/03 10:06:22;;;;;;;16.27;8.95;;;;;;;11.23;31.58;99830.84;4425908;32;35397;-74
2022/03/03 10:09:10;;;;;;;17.12;8.95;;;;;;;10.98;31.09;99832.25;4438659;32;35041;-75
2022/03/03 10:12:04;;;;;;;21.02;11.40;;;;;;;10.99;31.16;99831.13;4425281;32;36080;-74
2022/03/03 10:15:00;;;;;;;42.65;10.38;;;;;;;10.90;31.21;99823.94;4436251;32;34946;-75
2022/03/03 10:18:05;;;;;;;19.87;10.57;;;;;;;10.86;32.66;99834.72;4440898;32;34567;-75
2022/03/03 10:21:02;;;;;;;21.52;10.85;;;;;;;11.07;30.88;99840.56;4425875;32;34234;-75
2022/03/03 10:23:49;;;;;;;19.87;10.77;;;;;;;10.41;32.62;99837.31;4437883;32;34659;-75
2022/03/03 10:26:41;;;;;;;20.33;10.43;;;;;;;11.57;31.60;99828.69;4426314;32;35886;-75
2022/03/03 10:29:28;;;;;;;17.37;9.88;;;;;;;10.47;31.80;99818.84;4421219;32;179982;-75
2022/03/03 10:32:24;;;;;;;20.60;10.55;;;;;;;9.46;34.67;99817.69;4416113;32;35016;-75
2022/03/03 10:35:16;;;;;;;17.48;9.65;;;;;;;8.25;35.64;99821.81;4438055;32;34481;-75
2022/03/03 10:38:03;;;;;;;17.45;9.63;;;;;;;10.12;33.73;99821.16;4442010;32;36074;-75
2022/03/03 10:40:49;;;;;;;19.35;10.35;;;;;;;10.41;33.69;99828.28;4453769;32;34724;-74
2022/03/03 10:43:48;;;;;;;16.27;9.07;;;;;;;10.79;32.61;99815.97;4438318;32;35246;-75
2022/03/03 10:46:37;;;;;;;17.65;10.32;;;;;;;11.10;31.41;99806.22;4440457;32;35509;-75
2022/03/03 10:49:23;;;;;;;19.73;9.77;;;;;;;8.33;35.86;99810.25;4441499;32;34973;-75
2022/03/03 10:52:20;;;;;;;21.35;9.88;;;;;;;8.96;35.73;99809.16;4437524;32;35573;-75
2022/03/03 10:55:10;;;;;;;16.52;9.02;;;;;;;10.68;32.75;99792.63;4442487;32;34343;-75
2022/03/03 10:57:57;;;;;;;17.27;8.88;;;;;;;9.26;34.63;99794.22;4442182;32;35825;-75
2022/03/03 11:00:43;;;;;;;18.90;10.30;;;;;;;8.25;37.36;99794.50;4454483;32;36004;-75
2022/03/03 11:03:30;;;;;;;21.40;10.15;;;;;;;9.46;35.01;99788.41;4443695;32;35468;-75
2022/03/03 11:06:18;;;;;;;21.58;11.10;;;;;;;9.86;34.16;99787.97;4432983;32;35193;-75
2022/03/03 11:09:05;;;;;;;16.52;8.88;;;;;;;9.25;34.65;99789.88;4453986;32;34590;-75
2022/03/03 11:11:51;;;;;;;17.45;9.38;;;;;;;8.08;36.91;99784.91;4454356;32;34994;-74
2022/03/03 11:14:39;;;;;;;19.10;10.10;;;;;;;7.93;36.52;99785.06;4442842;32;34677;-74
2022/03/03 11:17:38;;;;;;;23.30;9.60;;;;;;;7.66;37.34;99770.06;4439463;32;34378;-75
2022/03/03 11:20:24;;;;;;;21.02;9.93;;;;;;;9.13;35.28;99756.69;4451155;32;34603;-74
2022/03/03 11:23:11;;;;;;;18.67;9.45;;;;;;;9.09;34.74;99761.16;4442580;32;34937;-75
2022/03/03 11:25:57;;;;;;;16.83;9.23;;;;;;;8.85;35.04;99762.06;4442378;32;34633;-75
2022/03/03 11:28:55;;;;;;;21.05;10.10;;;;;;;9.37;34.85;99757.41;4441114;32;35065;-75
2022/03/03 11:32:03;;;;;;;18.70;9.30;;;;;;;9.39;35.47;99754.34;4441788;32;35537;-75
2022/03/03 11:34:50;;;;;;;18.40;9.05;;;;;;;9.37;35.34;99757.41;4450754;32;34867;-74
2022/03/03 11:37:45;;;;;;;15.52;8.40;;;;;;;9.49;35.66;99756.09;4453223;32;35469;-74
2022/03/03 11:40:33;;;;;;;19.25;8.73;;;;;;;9.72;35.20;99752.38;4440872;32;34280;-74
2022/03/03 11:43:19;;;;;;;17.37;8.90;;;;;;;9.73;34.43;99745.78;4451172;32;34644;-75
2022/03/03 11:46:06;;;;;;;19.23;9.63;;;;;;;10.15;33.77;99732.94;4441943;32;36129;-74
2022/03/03 11:49:09;;;;;;;18.55;10.57;;;;;;;8.96;35.63;99738.09;4453599;32;34815;-75
2022/03/03 11:51:57;;;;;;;18.50;9.88;;;;;;;6.79;39.92;99740.03;4446967;32;34623;-75
2022/03/03 11:54:43;;;;;;;26.50;9.88;;;;;;;8.26;37.06;99727.91;4434254;32;34625;-75
2022/03/03 11:57:32;;;;;;;21.23;9.48;;;;;;;8.78;37.52;99726.91;4455301;32;34947;-75
2022/03/03 12:00:19;;;;;;;20.02;10.00;;;;;;;9.28;35.63;99715.44;4439650;32;35428;-74
2022/03/03 12:03:09;;;;;;;17.85;9.45;;;;;;;8.54;36.92;99712.53;4455839;32;34244;-75
2022/03/03 12:10:28;;;;;;;20.67;10.52;;;;;;;6.93;39.84;99723.84;4442148;32;34983;-75
2022/03/03 12:13:28;;;;;;;17.80;9.80;;;;;;;7.53;38.66;99718.13;4453831;32;34731;-76
2022/03/03 12:16:25;;;;;;;18.12;10.13;;;;;;;6.68;39.60;99712.03;4443182;32;34124;-75
2022/03/03 12:19:13;;;;;;;22.23;10.32;;;;;;;6.39;41.34;99703.00;4453645;32;35491;-74
2022/03/03 12:22:03;;;;;;;19.87;9.90;;;;;;;6.59;40.74;99707.50;4455272;32;34962;-75
2022/03/03 12:24:50;;;;;;;19.17;10.85;;;;;;;6.57;41.89;99702.31;4442020;32;34755;-74
2022/03/03 12:28:14;;;;;;;17.95;10.02;;;;;;;6.12;41.41;99690.63;4437373;32;35044;-75
2022/03/03 12:31:02;;;;;;;15.68;8.85;;;;;;;6.71;40.92;99697.88;4453203;32;34709;-76
2022/03/03 12:34:01;;;;;;;19.60;9.88;;;;;;;7.94;38.23;99683.03;4440857;32;34994;-76
2022/03/03 12:36:54;;;;;;;18.27;10.15;;;;;;;8.52;36.73;99692.91;4448890;32;34700;-75
2022/03/03 12:44:13;;;;;;;18.67;9.55;;;;;;;7.99;37.79;99696.59;4451723;32;34636;-75
2022/03/03 12:47:00;;;;;;;20.17;9.85;;;;;;;7.30;38.75;99689.75;4454918;32;35029;-75
2022/03/03 12:49:49;;;;;;;18.30;9.60;;;;;;;7.72;38.12;99685.47;4440554;32;34869;-74
2022/03/03 12:52:36;;;;;;;18.42;10.30;;;;;;;8.44;37.18;99683.44;4446906;32;34463;-75
2022/03/03 12:55:34;;;;;;;23.80;10.25;;;;;;;7.92;37.06;99679.78;4453624;32;35576;-74
2022/03/03 12:58:21;;;;;;;19.10;9.70;;;;;;;8.05;37.65;99683.69;4454037;32;35977;-74
2022/03/03 13:01:07;;;;;;;20.67;9.82;;;;;;;7.97;36.98;99676.16;4453184;32;34576;-74
2022/03/03 13:03:54;;;;;;;18.20;10.20;;;;;;;9.10;35.42;99667.09;4454104;32;34182;-75
2022/03/03 13:06:40;;;;;;;20.27;10.15;;;;;;;9.27;34.91;99664.59;4453331;32;34664;-75
2022/03/03 13:09:26;;;;;;;18.55;9.60;;;;;;;9.66;34.45;99666.06;4451448;32;35921;-75
2022/03/03 13:12:13;;;;;;;16.95;9.70;;;;;;;9.49;35.25;99666.66;4452062;32;33566;-75